createdAt,value
2024-02-05T00:01:10.177Z,3.51
2024-02-05T00:03:38.308Z,3.41
2024-02-05T00:06:06.793Z,3.41
2024-02-05T00:08:35.693Z,3.43
2024-02-05T00:11:06.288Z,3.12
2024-02-05T00:13:34.498Z,3.23
2024-02-05T00:16:03.143Z,3.36
2024-02-05T00:18:31.397Z,3.46
2024-02-05T00:20:59.371Z,3.65
2024-02-05T00:23:27.347Z,3.65
2024-02-05T00:25:55.360Z,3.63
2024-02-05T00:28:24.826Z,3.37
2024-02-05T00:30:52.823Z,3.32
2024-02-05T00:33:20.795Z,3.43
2024-02-05T00:35:48.849Z,3.48
2024-02-05T00:38:16.862Z,3.55
2024-02-05T00:40:45.902Z,3.62
2024-02-05T00:43:13.889Z,3.52
2024-02-05T00:45:43.292Z,3.57
2024-02-05T00:48:11.388Z,3.70
2024-02-05T00:50:39.369Z,3.70
2024-02-05T00:53:07.500Z,3.68
2024-02-05T00:55:35.455Z,3.77
2024-02-05T00:58:04.561Z,3.86
2024-02-05T01:00:32.701Z,3.82
2024-02-05T01:03:02.608Z,3.90
2024-02-05T01:05:30.732Z,3.88
2024-02-05T01:07:58.931Z,3.81
2024-02-05T01:10:26.961Z,3.83
2024-02-05T01:12:54.939Z,3.74
2024-02-05T01:15:22.976Z,3.67
2024-02-05T01:17:51.027Z,3.64
2024-02-05T01:20:20.457Z,3.48
2024-02-05T01:22:48.983Z,3.47
2024-02-05T01:25:17.125Z,3.41
2024-02-05T01:27:45.242Z,3.49
2024-02-05T01:30:14.643Z,3.54
2024-02-05T01:32:42.631Z,3.53
2024-02-05T01:35:11.367Z,3.51
2024-02-05T01:37:40.773Z,3.49
2024-02-05T01:40:11.573Z,3.49
2024-02-05T01:42:40.861Z,3.52
2024-02-05T01:45:10.415Z,3.53
2024-02-05T01:47:39.435Z,3.53
2024-02-05T01:50:10.786Z,3.45
2024-02-05T01:52:46.160Z,3.33
2024-02-05T01:55:16.164Z,3.33
2024-02-05T01:57:45.370Z,3.30
2024-02-05T02:00:16.081Z,3.24
2024-02-05T02:02:45.029Z,3.21
2024-02-05T02:05:14.332Z,3.16
2024-02-05T02:07:44.050Z,3.13
2024-02-05T02:10:12.362Z,3.13
2024-02-05T02:12:40.732Z,3.11
2024-02-05T02:15:09.543Z,3.04
2024-02-05T02:17:42.164Z,2.91
2024-02-05T02:20:11.973Z,2.64
2024-02-05T02:22:54.791Z,2.32
2024-02-05T02:25:24.626Z,2.35
2024-02-05T02:27:52.742Z,2.37
2024-02-05T02:30:23.093Z,2.34
2024-02-05T02:33:02.520Z,2.44
2024-02-05T02:35:35.593Z,2.59
2024-02-05T02:38:12.918Z,2.70
2024-02-05T02:40:43.086Z,2.76
2024-02-05T02:43:12.297Z,2.79
2024-02-05T02:45:40.677Z,2.73
2024-02-05T02:48:09.058Z,2.71
2024-02-05T02:50:37.202Z,2.73
2024-02-05T02:53:05.456Z,2.66
2024-02-05T02:55:33.400Z,2.61
2024-02-05T02:58:02.808Z,2.60
2024-02-05T03:00:30.904Z,2.63
2024-02-05T03:02:58.877Z,2.51
2024-02-05T03:05:27.471Z,2.30
2024-02-05T03:07:55.415Z,2.33
2024-02-05T03:10:23.455Z,2.48
2024-02-05T03:12:51.514Z,2.50
2024-02-05T03:15:21.848Z,2.45
2024-02-05T03:17:49.869Z,2.50
2024-02-05T03:20:34.784Z,2.56
2024-02-05T03:23:08.812Z,2.56
2024-02-05T03:25:38.869Z,2.59
2024-02-05T03:28:08.932Z,2.58
2024-02-05T03:30:39.504Z,2.54
2024-02-05T03:33:07.932Z,2.57
2024-02-05T03:35:36.599Z,2.55
2024-02-05T03:38:05.245Z,2.56
2024-02-05T03:40:33.255Z,2.53
2024-02-05T03:43:01.257Z,2.52
2024-02-05T03:45:30.079Z,2.50
2024-02-05T03:47:59.508Z,2.45
2024-02-05T03:50:27.498Z,1.98
2024-02-05T03:52:55.777Z,1.76
2024-02-05T03:55:23.778Z,1.90
2024-02-05T03:57:59.695Z,2.06
2024-02-05T04:00:27.910Z,2.23
2024-02-05T04:02:57.248Z,2.29
2024-02-05T04:05:29.700Z,2.33
2024-02-05T04:07:58.515Z,2.26
2024-02-05T04:10:27.152Z,1.95
2024-02-05T04:12:55.320Z,1.84
2024-02-05T04:15:23.505Z,1.88
2024-02-05T04:17:51.523Z,1.87
2024-02-05T04:20:20.792Z,1.53
2024-02-05T04:22:51.044Z,1.43
2024-02-05T04:25:19.295Z,1.63
2024-02-05T04:27:47.590Z,1.77
2024-02-05T04:30:17.397Z,1.84
2024-02-05T04:32:45.732Z,1.79
2024-02-05T04:35:13.972Z,1.93
2024-02-05T04:37:44.032Z,2.00
2024-02-05T04:40:13.850Z,2.05
2024-02-05T04:42:42.038Z,2.08
2024-02-05T04:45:11.027Z,2.07
2024-02-05T04:47:39.631Z,2.03
2024-02-05T04:50:08.763Z,2.11
2024-02-05T04:52:37.066Z,2.13
2024-02-05T04:55:05.645Z,2.06
2024-02-05T04:57:35.111Z,2.04
2024-02-05T05:00:03.285Z,2.08
2024-02-05T05:02:31.279Z,2.08
2024-02-05T05:04:59.258Z,2.06
2024-02-05T05:07:28.542Z,2.01
2024-02-05T05:09:56.583Z,1.91
2024-02-05T05:12:24.576Z,1.73
2024-02-05T05:14:53.874Z,1.63
2024-02-05T05:17:22.052Z,1.56
2024-02-05T05:19:50.167Z,1.57
2024-02-05T05:22:18.298Z,1.60
2024-02-05T05:24:46.591Z,1.62
2024-02-05T05:27:14.576Z,1.58
2024-02-05T05:29:42.537Z,1.66
2024-02-05T05:32:11.863Z,1.64
2024-02-05T05:34:40.156Z,1.56
2024-02-05T05:37:08.370Z,1.47
2024-02-05T05:39:36.514Z,1.53
2024-02-05T05:42:04.775Z,1.67
2024-02-05T05:44:32.752Z,1.73
2024-02-05T05:47:00.729Z,1.80
2024-02-05T05:49:30.714Z,1.86
2024-02-05T05:51:59.020Z,1.90
2024-02-05T05:54:27.333Z,1.92
2024-02-05T05:56:55.760Z,1.91
2024-02-05T05:59:23.856Z,1.97
2024-02-05T06:01:52.642Z,1.93
2024-02-05T06:04:20.711Z,1.91
2024-02-05T06:06:50.400Z,1.90
2024-02-05T06:09:19.928Z,2.06
2024-02-05T06:11:48.015Z,1.98
2024-02-05T06:14:16.046Z,1.94
2024-02-05T06:16:44.116Z,1.95
2024-02-05T06:19:12.136Z,1.95
2024-02-05T06:21:40.194Z,1.93
2024-02-05T06:24:09.657Z,1.91
2024-02-05T06:26:37.621Z,1.89
2024-02-05T06:29:05.547Z,1.86
2024-02-05T06:31:33.642Z,1.66
2024-02-05T06:34:02.555Z,1.38
2024-02-05T06:36:31.433Z,1.43
2024-02-05T06:38:59.406Z,1.54
2024-02-05T06:41:28.687Z,1.63
2024-02-05T06:43:56.694Z,1.71
2024-02-05T06:46:24.828Z,1.71
2024-02-05T06:48:52.971Z,1.74
2024-02-05T06:51:21.013Z,1.73
2024-02-05T06:53:49.109Z,1.75
2024-02-05T06:56:17.440Z,1.75
2024-02-05T06:58:46.791Z,1.77
2024-02-05T07:01:15.275Z,1.75
2024-02-05T07:03:43.385Z,1.65
2024-02-05T07:06:12.118Z,1.52
2024-02-05T07:08:40.320Z,1.56
2024-02-05T07:11:08.296Z,1.42
2024-02-05T07:13:36.679Z,1.63
2024-02-05T07:16:06.994Z,1.77
2024-02-05T07:18:35.137Z,1.91
2024-02-05T07:21:06.203Z,1.87
2024-02-05T07:23:34.267Z,1.92
2024-02-05T07:26:02.226Z,2.00
2024-02-05T07:28:30.963Z,2.06
2024-02-05T07:31:00.117Z,2.07
2024-02-05T07:33:29.440Z,2.08
2024-02-05T07:35:59.854Z,2.16
2024-02-05T07:38:28.009Z,2.06
2024-02-05T07:40:56.016Z,2.07
2024-02-05T07:43:24.408Z,2.16
2024-02-05T07:45:52.508Z,2.21
2024-02-05T07:48:21.154Z,1.88
2024-02-05T07:50:50.713Z,1.61
2024-02-05T07:53:18.729Z,1.48
2024-02-05T07:55:46.683Z,1.39
2024-02-05T07:58:14.782Z,1.41
2024-02-05T08:00:45.535Z,1.52
2024-02-05T08:03:14.563Z,1.62
2024-02-05T08:05:42.754Z,1.77
2024-02-05T08:08:12.166Z,1.73
2024-02-05T08:10:40.277Z,1.61
2024-02-05T08:13:08.483Z,1.56
2024-02-05T08:15:36.441Z,1.55
2024-02-05T08:18:04.717Z,1.67
2024-02-05T08:20:32.713Z,1.59
2024-02-05T08:23:00.666Z,1.66
2024-02-05T08:25:31.464Z,1.75
2024-02-05T08:28:01.094Z,1.88
2024-02-05T08:30:29.168Z,2.04
2024-02-05T08:32:57.239Z,2.20
2024-02-05T08:35:25.316Z,2.28
2024-02-05T08:37:54.056Z,2.44
2024-02-05T08:40:22.144Z,2.54
2024-02-05T08:42:51.532Z,2.58
2024-02-05T08:45:20.065Z,2.62
2024-02-05T08:47:48.111Z,2.58
2024-02-05T08:50:16.567Z,2.48
2024-02-05T08:52:44.676Z,2.48
2024-02-05T08:55:12.606Z,2.41
2024-02-05T08:57:43.380Z,2.42
2024-02-05T09:00:15.188Z,2.36
2024-02-05T09:02:43.361Z,2.43
2024-02-05T09:05:11.554Z,2.54
2024-02-05T09:07:40.736Z,2.68
2024-02-05T09:10:09.584Z,2.83
2024-02-05T09:12:37.612Z,2.88
2024-02-05T09:15:06.387Z,2.93
2024-02-05T09:17:35.816Z,2.96
2024-02-05T09:20:04.153Z,3.02
2024-02-05T09:22:35.012Z,3.05
2024-02-05T09:25:03.611Z,2.99
2024-02-05T09:27:31.650Z,3.03
2024-02-05T09:29:59.642Z,3.03
2024-02-05T09:32:27.681Z,2.88
2024-02-05T09:34:59.122Z,2.78
2024-02-05T09:37:27.320Z,2.83
2024-02-05T09:39:55.422Z,2.80
2024-02-05T09:42:23.425Z,2.63
2024-02-05T09:44:52.627Z,2.55
2024-02-05T09:47:21.809Z,2.43
2024-02-05T09:49:50.661Z,2.47
2024-02-05T09:52:21.063Z,2.47
2024-02-05T09:54:49.788Z,2.45
2024-02-05T09:57:18.992Z,2.60
2024-02-05T09:59:48.067Z,2.64
2024-02-05T10:02:18.021Z,2.55
2024-02-05T10:04:46.477Z,2.59
2024-02-05T10:07:16.184Z,2.69
2024-02-05T10:09:45.952Z,2.86
2024-02-05T10:12:14.995Z,2.94
2024-02-05T10:14:43.966Z,3.04
2024-02-05T10:17:12.626Z,3.11
2024-02-05T10:19:40.919Z,3.15
2024-02-05T10:22:10.319Z,2.96
2024-02-05T10:24:41.759Z,2.78
2024-02-05T10:27:16.883Z,2.78
2024-02-05T10:29:44.981Z,3.01
2024-02-05T10:32:12.947Z,2.97
2024-02-05T10:34:41.349Z,2.94
2024-02-05T10:37:11.786Z,3.12
2024-02-05T10:39:39.854Z,3.34
2024-02-05T10:42:07.868Z,3.35
2024-02-05T10:44:41.508Z,3.41
2024-02-05T10:47:11.029Z,3.62
2024-02-05T10:49:39.928Z,3.70
2024-02-05T10:52:11.181Z,3.63
2024-02-05T10:54:42.872Z,3.71
2024-02-05T10:57:11.348Z,3.78
2024-02-05T10:59:40.708Z,3.88
2024-02-05T11:02:15.719Z,3.95
2024-02-05T11:04:44.333Z,4.07
2024-02-05T11:07:18.381Z,4.15
2024-02-05T11:09:50.850Z,4.00
2024-02-05T11:12:23.757Z,4.01
2024-02-05T11:14:58.337Z,4.22
2024-02-05T11:17:27.288Z,4.12
2024-02-05T11:19:57.552Z,3.92
2024-02-05T11:22:26.786Z,4.09
2024-02-05T11:24:54.839Z,4.21
2024-02-05T11:27:22.907Z,4.17
2024-02-05T11:29:53.456Z,4.15
2024-02-05T11:32:31.481Z,4.12
2024-02-05T11:34:59.639Z,4.21
2024-02-05T11:37:28.964Z,4.19
2024-02-05T11:40:00.321Z,4.25
2024-02-05T11:42:29.873Z,4.39
2024-02-05T11:45:00.902Z,4.20
2024-02-05T11:47:29.485Z,3.88
2024-02-05T11:49:59.322Z,3.96
2024-02-05T11:52:27.598Z,4.24
2024-02-05T11:54:57.417Z,4.50
2024-02-05T11:57:26.467Z,4.36
2024-02-05T11:59:54.433Z,4.54
2024-02-05T12:02:24.707Z,4.67
2024-02-05T12:04:53.278Z,4.69
2024-02-05T12:07:24.130Z,4.71
2024-02-05T12:09:52.567Z,4.87
2024-02-05T12:12:21.175Z,5.08
2024-02-05T12:14:49.124Z,5.13
2024-02-05T12:17:17.319Z,5.29
2024-02-05T12:19:46.961Z,5.34
2024-02-05T12:22:16.034Z,5.43
2024-02-05T12:24:44.175Z,5.47
2024-02-05T12:27:12.158Z,5.34
2024-02-05T12:29:40.125Z,5.53
2024-02-05T12:32:08.969Z,5.84
2024-02-05T12:34:37.713Z,5.96
2024-02-05T12:37:08.441Z,5.91
2024-02-05T12:39:37.806Z,6.00
2024-02-05T12:42:06.415Z,6.10
2024-02-05T12:44:40.517Z,6.30
2024-02-05T12:47:12.670Z,6.32
2024-02-05T12:49:41.791Z,6.07
2024-02-05T12:52:11.638Z,6.02
2024-02-05T12:54:40.605Z,6.19
2024-02-05T12:57:09.559Z,6.44
2024-02-05T12:59:37.670Z,6.42
2024-02-05T13:02:07.325Z,6.28
2024-02-05T13:04:37.332Z,6.28
2024-02-05T13:07:09.689Z,6.29
2024-02-05T13:09:43.254Z,6.28
2024-02-05T13:12:13.565Z,6.17
2024-02-05T13:14:41.699Z,6.31
2024-02-05T13:17:09.722Z,6.29
2024-02-05T13:19:38.607Z,6.39
2024-02-05T13:22:07.803Z,6.55
2024-02-05T13:24:37.599Z,6.76
2024-02-05T13:27:07.305Z,6.93
2024-02-05T13:29:35.300Z,7.02
2024-02-05T13:32:03.404Z,7.03
2024-02-05T13:34:33.314Z,7.17
2024-02-05T13:37:01.768Z,7.32
2024-02-05T13:39:29.839Z,7.46
2024-02-05T13:41:58.144Z,7.44
2024-02-05T13:44:28.028Z,7.34
2024-02-05T13:46:56.028Z,7.47
2024-02-05T13:49:24.113Z,7.63
2024-02-05T13:51:52.351Z,7.68
2024-02-05T13:54:20.444Z,7.95
2024-02-05T13:56:50.412Z,7.86
2024-02-05T13:59:18.845Z,7.94
2024-02-05T14:01:52.982Z,8.15
2024-02-05T14:04:21.462Z,8.07
2024-02-05T14:06:49.662Z,8.16
2024-02-05T14:09:17.793Z,8.00
2024-02-05T14:11:45.773Z,7.98
2024-02-05T14:14:13.728Z,8.15
2024-02-05T14:16:41.821Z,8.18
2024-02-05T14:19:11.238Z,8.27
2024-02-05T14:21:41.534Z,8.31
2024-02-05T14:24:10.339Z,8.16
2024-02-05T14:26:39.072Z,8.23
2024-02-05T14:29:07.038Z,8.13
2024-02-05T14:31:35.097Z,8.16
2024-02-05T14:34:03.936Z,8.22
2024-02-05T14:36:33.511Z,8.36
2024-02-05T14:39:01.509Z,8.45
2024-02-05T14:41:29.515Z,8.51
2024-02-05T14:43:57.458Z,8.34
2024-02-05T14:46:25.516Z,8.43
2024-02-05T14:48:53.666Z,8.42
2024-02-05T14:51:21.786Z,8.52
2024-02-05T14:53:51.241Z,8.45
2024-02-05T14:56:19.219Z,8.42
2024-02-05T14:58:47.177Z,8.40
2024-02-05T15:01:15.251Z,8.48
2024-02-05T15:03:46.145Z,8.72
2024-02-05T15:06:14.404Z,8.50
2024-02-05T15:08:42.660Z,8.42
2024-02-05T15:11:12.603Z,8.44
2024-02-05T15:13:40.722Z,8.61
2024-02-05T15:16:09.909Z,8.72
2024-02-05T15:18:37.948Z,8.61
2024-02-05T15:21:06.099Z,8.74
2024-02-05T15:23:37.330Z,8.68
2024-02-05T15:26:05.589Z,8.68
2024-02-05T15:28:34.950Z,8.87
2024-02-05T15:31:03.129Z,9.05
2024-02-05T15:33:31.145Z,9.09
2024-02-05T15:35:59.245Z,9.04
2024-02-05T15:38:27.236Z,8.89
2024-02-05T15:40:55.207Z,9.05
2024-02-05T15:43:23.677Z,8.84
2024-02-05T15:45:53.164Z,8.87
2024-02-05T15:48:21.699Z,8.96
2024-02-05T15:50:49.849Z,8.86
2024-02-05T15:53:19.021Z,8.91
2024-02-05T15:55:48.177Z,8.90
2024-02-05T15:58:16.716Z,8.76
2024-02-05T16:00:45.454Z,8.59
2024-02-05T16:03:14.897Z,8.45
2024-02-05T16:05:42.970Z,8.28
2024-02-05T16:08:11.081Z,7.95
2024-02-05T16:10:39.331Z,8.18
2024-02-05T16:13:07.820Z,8.25
2024-02-05T16:15:35.872Z,8.12
2024-02-05T16:18:04.742Z,8.10
2024-02-05T16:20:35.717Z,8.06
2024-02-05T16:23:04.570Z,8.13
2024-02-05T16:25:35.567Z,8.07
2024-02-05T16:28:03.870Z,7.91
2024-02-05T16:30:34.049Z,7.71
2024-02-05T16:33:02.679Z,7.59
2024-02-05T16:35:30.784Z,7.38
2024-02-05T16:38:00.209Z,7.31
2024-02-05T16:40:28.358Z,7.11
2024-02-05T16:42:56.387Z,6.85
2024-02-05T16:45:24.396Z,6.61
2024-02-05T16:47:52.408Z,6.47
2024-02-05T16:50:20.654Z,6.32
2024-02-05T16:52:49.486Z,6.22
2024-02-05T16:55:19.005Z,6.19
2024-02-05T16:57:47.101Z,6.15
2024-02-05T17:00:15.684Z,6.17
2024-02-05T17:02:43.613Z,6.20
2024-02-05T17:05:11.938Z,6.00
2024-02-05T17:07:45.289Z,5.79
2024-02-05T17:10:13.735Z,5.66
2024-02-05T17:12:43.107Z,5.56
2024-02-05T17:15:11.151Z,5.73
2024-02-05T17:17:39.185Z,5.90
2024-02-05T17:20:08.534Z,5.93
2024-02-05T17:22:36.959Z,5.82
2024-02-05T17:25:05.441Z,5.82
2024-02-05T17:27:33.906Z,5.84
2024-02-05T17:30:03.320Z,5.81
2024-02-05T17:32:31.579Z,5.77
2024-02-05T17:35:01.204Z,5.77
2024-02-05T17:37:29.402Z,5.73
2024-02-05T17:39:57.556Z,5.55
2024-02-05T17:42:25.768Z,5.49
2024-02-05T17:44:53.700Z,5.39
2024-02-05T17:47:23.054Z,5.26
2024-02-05T17:49:51.112Z,5.26
2024-02-05T17:52:19.224Z,5.32
2024-02-05T17:54:47.262Z,5.35
2024-02-05T17:57:15.258Z,5.27
2024-02-05T17:59:43.397Z,5.19
2024-02-05T18:02:11.849Z,5.12
2024-02-05T18:04:41.415Z,5.14
2024-02-05T18:07:09.549Z,5.20
2024-02-05T18:09:37.570Z,5.23
2024-02-05T18:12:08.358Z,5.19
2024-02-05T18:14:37.181Z,5.18
2024-02-05T18:17:05.675Z,5.21
2024-02-05T18:19:33.946Z,5.13
2024-02-05T18:22:03.369Z,5.06
2024-02-05T18:24:37.965Z,5.01
2024-02-05T18:27:13.653Z,5.01
2024-02-05T18:29:41.604Z,5.09
2024-02-05T18:32:09.558Z,5.06
2024-02-05T18:34:42.396Z,4.97
2024-02-05T18:37:14.453Z,4.84
2024-02-05T18:39:42.706Z,4.83
2024-02-05T18:42:10.724Z,4.78
2024-02-05T18:44:38.698Z,4.77
2024-02-05T18:47:07.578Z,4.77
2024-02-05T18:49:35.622Z,4.71
2024-02-05T18:52:07.835Z,4.65
2024-02-05T18:54:39.189Z,4.62
2024-02-05T18:57:09.902Z,4.62
2024-02-05T18:59:37.937Z,4.60
2024-02-05T19:02:06.083Z,4.64
2024-02-05T19:04:34.128Z,4.61
2024-02-05T19:07:02.109Z,4.57
2024-02-05T19:09:30.164Z,4.44
2024-02-05T19:11:59.686Z,4.29
2024-02-05T19:14:27.666Z,3.92
2024-02-05T19:16:55.714Z,3.81
2024-02-05T19:19:23.849Z,3.74
2024-02-05T19:21:52.107Z,3.86
2024-02-05T19:24:20.504Z,4.03
2024-02-05T19:26:50.021Z,4.15
2024-02-05T19:29:21.300Z,4.22
2024-02-05T19:31:49.574Z,4.13
2024-02-05T19:34:20.238Z,4.05
2024-02-05T19:36:48.273Z,3.83
2024-02-05T19:39:16.360Z,3.82
2024-02-05T19:41:44.518Z,3.88
2024-02-05T19:44:12.601Z,3.90
2024-02-05T19:46:42.108Z,3.76
2024-02-05T19:49:10.269Z,3.64
2024-02-05T19:51:38.238Z,3.23
2024-02-05T19:54:06.766Z,2.99
2024-02-05T19:56:34.703Z,3.06
2024-02-05T19:59:02.791Z,2.84
2024-02-05T20:01:31.044Z,2.94
2024-02-05T20:04:00.626Z,3.10
2024-02-05T20:06:28.730Z,3.28
2024-02-05T20:08:56.730Z,3.46
2024-02-05T20:11:24.724Z,3.47
2024-02-05T20:13:52.681Z,3.35
2024-02-05T20:16:27.499Z,3.29
2024-02-05T20:18:56.288Z,3.41
2024-02-05T20:21:26.232Z,3.52
2024-02-05T20:23:55.828Z,3.67
2024-02-05T20:26:24.215Z,3.78
2024-02-05T20:28:52.199Z,3.64
2024-02-05T20:31:20.231Z,3.59
2024-02-05T20:33:48.266Z,3.58
2024-02-05T20:36:16.226Z,3.63
2024-02-05T20:38:45.993Z,3.67
2024-02-05T20:41:14.234Z,3.63
2024-02-05T20:43:46.542Z,3.68
2024-02-05T20:46:15.230Z,3.73
2024-02-05T20:48:43.204Z,3.65
2024-02-05T20:51:11.236Z,3.70
2024-02-05T20:53:39.387Z,3.77
2024-02-05T20:56:09.091Z,3.71
2024-02-05T20:58:37.181Z,3.56
2024-02-05T21:01:05.587Z,3.62
2024-02-05T21:03:36.739Z,3.57
2024-02-05T21:06:05.655Z,3.55
2024-02-05T21:08:34.328Z,3.74
2024-02-05T21:11:04.450Z,3.80
2024-02-05T21:13:34.675Z,3.70
2024-02-05T21:16:02.990Z,3.57
2024-02-05T21:18:31.211Z,3.37
2024-02-05T21:20:59.522Z,3.32
2024-02-05T21:23:27.524Z,3.29
2024-02-05T21:25:55.451Z,3.33
2024-02-05T21:28:23.481Z,3.43
2024-02-05T21:30:52.892Z,3.43
2024-02-05T21:33:20.921Z,3.36
2024-02-05T21:35:49.006Z,3.28
2024-02-05T21:38:17.028Z,3.27
2024-02-05T21:40:45.404Z,3.39
2024-02-05T21:43:13.532Z,3.45
2024-02-05T21:45:41.620Z,3.51
2024-02-05T21:48:11.722Z,3.57
2024-02-05T21:50:40.627Z,3.65
2024-02-05T21:53:08.718Z,3.74
2024-02-05T21:55:36.847Z,3.78
2024-02-05T21:58:05.113Z,3.77
2024-02-05T22:00:33.160Z,3.63
2024-02-05T22:03:01.169Z,3.45
2024-02-05T22:05:30.652Z,3.39
2024-02-05T22:07:58.806Z,3.47
2024-02-05T22:10:26.738Z,3.43
2024-02-05T22:12:54.819Z,3.42
2024-02-05T22:15:22.842Z,3.41
2024-02-05T22:17:51.916Z,3.46
2024-02-05T22:20:20.206Z,3.56
2024-02-05T22:22:49.578Z,3.68
2024-02-05T22:25:18.564Z,3.74
2024-02-05T22:27:46.727Z,3.82
2024-02-05T22:30:15.410Z,3.55
2024-02-05T22:32:43.395Z,3.36
2024-02-05T22:35:11.734Z,3.40
2024-02-05T22:37:39.851Z,3.48
2024-02-05T22:40:10.841Z,3.46
2024-02-05T22:42:39.164Z,3.48
2024-02-05T22:45:08.660Z,3.43
2024-02-05T22:47:36.906Z,2.74
2024-02-05T22:50:05.920Z,2.48
2024-02-05T22:52:35.577Z,2.39
2024-02-05T22:55:04.685Z,2.48
2024-02-05T22:57:34.547Z,2.48
2024-02-05T23:00:03.050Z,2.48
2024-02-05T23:02:31.899Z,2.59
2024-02-05T23:05:00.037Z,2.66
2024-02-05T23:07:28.090Z,2.81
2024-02-05T23:09:56.037Z,2.97
2024-02-05T23:12:24.223Z,3.02
2024-02-05T23:14:53.577Z,2.99
2024-02-05T23:17:21.530Z,3.01
2024-02-05T23:19:49.578Z,2.98
2024-02-05T23:22:17.909Z,3.00
2024-02-05T23:24:46.174Z,3.08
2024-02-05T23:27:14.088Z,3.23
2024-02-05T23:29:42.236Z,3.21
2024-02-05T23:32:11.599Z,3.28
2024-02-05T23:34:39.851Z,3.34
2024-02-05T23:37:08.398Z,3.35
2024-02-05T23:39:37.455Z,3.13
2024-02-05T23:42:05.996Z,2.90
2024-02-05T23:44:33.925Z,2.94
2024-02-05T23:47:01.909Z,3.18
2024-02-05T23:49:31.389Z,3.14
2024-02-05T23:51:59.427Z,3.12
2024-02-05T23:54:27.399Z,3.15
2024-02-05T23:56:55.735Z,3.28
2024-02-05T23:59:23.791Z,3.21
